createdAt,value
2018-09-22T00:01:09.103Z,11.10
2018-09-22T00:03:37.448Z,11.10
2018-09-22T00:06:05.856Z,11.00
2018-09-22T00:08:34.196Z,11.00
2018-09-22T00:11:02.543Z,11.00
2018-09-22T00:13:30.878Z,11.00
2018-09-22T00:15:59.200Z,11.00
2018-09-22T00:18:27.527Z,11.00
2018-09-22T00:20:55.852Z,11.00
2018-09-22T00:23:24.196Z,11.00
2018-09-22T00:25:52.523Z,11.00
2018-09-22T00:28:20.894Z,11.00
2018-09-22T00:30:49.342Z,11.10
2018-09-22T00:33:17.679Z,11.10
2018-09-22T00:35:46.009Z,11.10
2018-09-22T00:38:14.346Z,11.00
2018-09-22T00:40:42.659Z,11.00
2018-09-22T00:43:10.999Z,11.00
2018-09-22T00:45:39.315Z,11.00
2018-09-22T00:48:07.642Z,11.00
2018-09-22T00:50:35.953Z,11.00
2018-09-22T00:53:04.284Z,11.00
2018-09-22T00:55:32.598Z,11.00
2018-09-22T00:58:00.948Z,11.00
2018-09-22T01:00:29.289Z,11.00
2018-09-22T01:02:57.630Z,11.00
2018-09-22T01:05:25.943Z,11.00
2018-09-22T01:07:54.278Z,11.00
2018-09-22T01:10:22.586Z,10.90
2018-09-22T01:12:50.934Z,10.90
2018-09-22T01:15:19.254Z,10.90
2018-09-22T01:17:47.597Z,10.80
2018-09-22T01:20:15.924Z,10.80
2018-09-22T01:22:44.263Z,10.80
2018-09-22T01:25:12.582Z,10.80
2018-09-22T01:27:40.922Z,10.80
2018-09-22T01:30:09.255Z,10.80
2018-09-22T01:32:37.730Z,10.80
2018-09-22T01:35:06.092Z,10.80
2018-09-22T01:37:34.423Z,10.80
2018-09-22T01:40:02.744Z,10.80
2018-09-22T01:42:31.097Z,10.80
2018-09-22T01:44:59.415Z,10.80
2018-09-22T01:47:27.782Z,10.80
2018-09-22T01:49:56.126Z,10.80
2018-09-22T01:52:24.477Z,10.80
2018-09-22T01:54:52.808Z,10.80
2018-09-22T01:57:21.626Z,10.80
2018-09-22T01:59:49.974Z,10.80
2018-09-22T02:02:18.405Z,10.80
2018-09-22T02:04:46.733Z,10.80
2018-09-22T02:07:15.125Z,10.80
2018-09-22T02:09:43.493Z,10.80
2018-09-22T02:12:11.961Z,10.80
2018-09-22T02:14:40.342Z,10.80
2018-09-22T02:17:08.655Z,10.80
2018-09-22T02:19:36.979Z,10.80
2018-09-22T02:22:06.077Z,10.80
2018-09-22T02:24:34.507Z,10.80
2018-09-22T02:27:02.858Z,10.80
2018-09-22T02:29:31.191Z,10.80
2018-09-22T02:31:59.526Z,10.80
2018-09-22T02:34:28.119Z,10.80
2018-09-22T02:36:56.444Z,10.80
2018-09-22T02:39:24.787Z,10.80
2018-09-22T02:41:53.099Z,10.80
2018-09-22T02:44:21.485Z,10.80
2018-09-22T02:46:49.803Z,10.80
2018-09-22T02:49:18.134Z,10.80
2018-09-22T02:51:46.491Z,10.80
2018-09-22T02:54:14.845Z,10.80
2018-09-22T02:56:43.163Z,10.80
2018-09-22T02:59:11.841Z,10.80
2018-09-22T03:01:40.147Z,10.80
2018-09-22T03:04:08.474Z,10.80
2018-09-22T03:06:36.804Z,10.80
2018-09-22T03:09:07.199Z,10.80
2018-09-22T03:11:35.539Z,10.80
2018-09-22T03:14:03.895Z,10.70
2018-09-22T03:16:32.302Z,10.80
2018-09-22T03:19:00.789Z,10.80
2018-09-22T03:21:29.167Z,10.80
2018-09-22T03:23:57.552Z,10.70
2018-09-22T03:26:25.954Z,10.70
2018-09-22T03:28:54.371Z,10.80
2018-09-22T03:31:22.684Z,10.80
2018-09-22T03:33:51.043Z,10.80
2018-09-22T03:36:19.590Z,10.80
2018-09-22T03:38:47.936Z,10.80
2018-09-22T03:41:16.352Z,10.80
2018-09-22T03:43:44.770Z,10.80
2018-09-22T03:46:13.124Z,10.80
2018-09-22T03:48:41.463Z,10.80
2018-09-22T03:51:09.779Z,10.80
2018-09-22T03:53:38.338Z,10.80
2018-09-22T03:56:06.713Z,10.90
2018-09-22T03:58:35.064Z,10.80
2018-09-22T04:01:03.528Z,10.80
2018-09-22T04:03:31.938Z,10.80
2018-09-22T04:06:00.277Z,10.80
2018-09-22T04:08:28.626Z,10.80
2018-09-22T04:10:56.979Z,10.80
2018-09-22T04:13:25.299Z,10.80
2018-09-22T04:15:53.635Z,10.70
2018-09-22T04:18:21.967Z,10.70
2018-09-22T04:20:50.456Z,10.70
2018-09-22T04:23:18.794Z,10.70
2018-09-22T04:25:47.131Z,10.70
2018-09-22T04:28:15.443Z,10.70
2018-09-22T04:30:43.770Z,10.70
2018-09-22T04:33:12.139Z,10.70
2018-09-22T04:35:40.467Z,10.70
2018-09-22T04:38:09.039Z,10.70
2018-09-22T04:40:37.439Z,10.70
2018-09-22T04:43:05.779Z,10.60
2018-09-22T04:45:34.132Z,10.60
2018-09-22T04:48:02.449Z,10.60
2018-09-22T04:50:30.785Z,10.60
2018-09-22T04:52:59.103Z,10.60
2018-09-22T04:55:27.466Z,10.60
2018-09-22T04:57:55.787Z,10.60
2018-09-22T05:00:24.126Z,10.60
2018-09-22T05:02:52.455Z,10.60
2018-09-22T05:05:20.807Z,10.70
2018-09-22T05:07:49.126Z,10.60
2018-09-22T05:10:17.731Z,10.70
2018-09-22T05:12:46.066Z,10.70
2018-09-22T05:15:14.479Z,10.70
2018-09-22T05:17:42.838Z,10.80
2018-09-22T05:20:11.183Z,10.80
2018-09-22T05:22:39.504Z,10.80
2018-09-22T05:25:07.839Z,10.80
2018-09-22T05:27:36.160Z,10.90
2018-09-22T05:30:04.519Z,10.90
2018-09-22T05:32:32.866Z,10.90
2018-09-22T05:35:01.223Z,10.90
2018-09-22T05:37:29.559Z,11.00
2018-09-22T05:39:58.130Z,11.00
2018-09-22T05:42:26.443Z,11.00
2018-09-22T05:44:54.782Z,11.00
2018-09-22T05:47:23.207Z,11.00
2018-09-22T05:49:51.524Z,11.00
2018-09-22T05:52:19.887Z,11.00
2018-09-22T05:54:48.292Z,11.00
2018-09-22T05:57:16.655Z,11.00
2018-09-22T05:59:44.996Z,11.00
2018-09-22T06:02:13.323Z,11.10
2018-09-22T06:04:41.671Z,11.10
2018-09-22T06:07:10.022Z,11.10
2018-09-22T06:09:38.368Z,11.10
2018-09-22T06:12:07.517Z,11.20
2018-09-22T06:14:35.899Z,11.20
2018-09-22T06:17:04.239Z,11.20
2018-09-22T06:19:32.549Z,11.20
2018-09-22T06:22:00.883Z,11.20
2018-09-22T06:24:29.228Z,11.20
2018-09-22T06:26:57.583Z,11.20
2018-09-22T06:29:25.903Z,11.30
2018-09-22T06:31:54.244Z,11.30
2018-09-22T06:34:22.558Z,11.40
2018-09-22T06:36:50.902Z,11.40
2018-09-22T06:39:19.210Z,11.50
2018-09-22T06:41:47.695Z,11.50
2018-09-22T06:44:16.044Z,11.50
2018-09-22T06:46:44.428Z,11.60
2018-09-22T06:49:13.391Z,11.70
2018-09-22T06:51:42.253Z,11.70
2018-09-22T06:54:10.648Z,11.80
2018-09-22T06:56:39.030Z,11.80
2018-09-22T06:59:07.355Z,11.80
2018-09-22T07:01:35.849Z,11.90
2018-09-22T07:04:04.932Z,11.90
2018-09-22T07:06:33.500Z,12.00
2018-09-22T07:09:02.118Z,12.10
2018-09-22T07:11:30.718Z,12.10
2018-09-22T07:13:59.169Z,12.20
2018-09-22T07:16:27.524Z,12.20
2018-09-22T07:18:55.859Z,12.30
2018-09-22T07:21:29.570Z,12.30
2018-09-22T07:23:57.918Z,12.40
2018-09-22T07:26:26.314Z,12.50
2018-09-22T07:28:54.663Z,12.60
2018-09-22T07:31:23.029Z,12.60
2018-09-22T07:33:51.370Z,12.70
2018-09-22T07:36:19.725Z,12.70
2018-09-22T07:38:48.159Z,12.70
2018-09-22T07:41:16.787Z,12.80
2018-09-22T07:43:45.129Z,12.80
2018-09-22T07:46:13.473Z,12.90
2018-09-22T07:48:42.034Z,12.90
2018-09-22T07:51:10.367Z,13.00
2018-09-22T07:53:38.794Z,13.10
2018-09-22T07:56:07.149Z,13.10
2018-09-22T07:58:35.565Z,13.20
2018-09-22T08:01:03.912Z,13.20
2018-09-22T08:03:32.350Z,13.20
2018-09-22T08:06:00.692Z,13.30
2018-09-22T08:08:29.040Z,13.30
2018-09-22T08:10:57.375Z,13.40
2018-09-22T08:13:25.741Z,13.50
2018-09-22T08:15:54.283Z,13.50
2018-09-22T08:18:22.649Z,13.50
2018-09-22T08:20:51.029Z,13.60
2018-09-22T08:23:19.411Z,13.60
2018-09-22T08:25:47.739Z,13.70
2018-09-22T08:28:16.355Z,13.80
2018-09-22T08:30:44.692Z,13.90
2018-09-22T08:33:13.080Z,13.90
2018-09-22T08:35:41.428Z,14.00
2018-09-22T08:38:09.779Z,14.00
2018-09-22T08:40:38.107Z,14.00
2018-09-22T08:43:06.461Z,14.10
2018-09-22T08:45:34.783Z,14.10
2018-09-22T08:48:03.143Z,14.20
2018-09-22T08:50:31.614Z,14.20
2018-09-22T08:53:00.006Z,14.20
2018-09-22T08:55:30.024Z,14.20
2018-09-22T08:57:58.512Z,14.30
2018-09-22T09:00:26.848Z,14.30
2018-09-22T09:02:55.155Z,14.40
2018-09-22T09:05:23.478Z,14.40
2018-09-22T09:07:51.827Z,14.40
2018-09-22T09:10:20.164Z,14.50
2018-09-22T09:12:48.850Z,14.50
2018-09-22T09:15:17.191Z,14.60
2018-09-22T09:17:45.540Z,14.60
2018-09-22T09:20:13.916Z,14.70
2018-09-22T09:22:42.263Z,14.70
2018-09-22T09:25:10.758Z,14.70
2018-09-22T09:27:39.141Z,14.80
2018-09-22T09:30:07.480Z,14.80
2018-09-22T09:32:35.825Z,14.90
2018-09-22T09:35:04.172Z,15.00
2018-09-22T09:37:32.536Z,15.10
2018-09-22T09:40:00.870Z,15.10
2018-09-22T09:42:29.244Z,15.10
2018-09-22T09:44:57.558Z,15.10
2018-09-22T09:47:25.904Z,15.20
2018-09-22T09:49:54.248Z,15.20
2018-09-22T09:52:22.675Z,15.20
2018-09-22T09:54:51.065Z,15.20
2018-09-22T09:57:19.395Z,15.20
2018-09-22T09:59:47.753Z,15.20
2018-09-22T10:02:16.094Z,15.30
2018-09-22T10:04:44.455Z,15.30
2018-09-22T10:07:12.791Z,15.40
2018-09-22T10:09:41.226Z,15.50
2018-09-22T10:12:09.585Z,15.70
2018-09-22T10:14:37.943Z,16.00
2018-09-22T10:17:06.375Z,16.10
2018-09-22T10:19:34.737Z,16.20
2018-09-22T10:22:03.083Z,16.30
2018-09-22T10:24:31.427Z,16.40
2018-09-22T10:26:59.782Z,16.40
2018-09-22T10:29:28.131Z,16.40
2018-09-22T10:31:56.546Z,16.30
2018-09-22T10:34:24.897Z,16.40
2018-09-22T10:36:53.227Z,16.30
2018-09-22T10:39:21.579Z,16.30
2018-09-22T10:41:49.922Z,16.30
2018-09-22T10:44:18.270Z,16.40
2018-09-22T10:46:46.612Z,16.50
2018-09-22T10:49:14.960Z,16.40
2018-09-22T10:51:43.286Z,16.50
2018-09-22T10:54:11.758Z,16.50
2018-09-22T10:56:40.111Z,16.40
2018-09-22T10:59:08.462Z,16.40
2018-09-22T11:01:36.787Z,16.40
2018-09-22T11:04:05.153Z,16.40
2018-09-22T11:06:33.499Z,16.40
2018-09-22T11:09:01.915Z,16.40
2018-09-22T11:11:30.280Z,16.40
2018-09-22T11:13:58.619Z,16.40
2018-09-22T11:16:26.951Z,16.40
2018-09-22T11:18:55.296Z,16.40
2018-09-22T11:21:23.635Z,16.30
2018-09-22T11:23:51.975Z,16.30
2018-09-22T11:26:20.323Z,16.40
2018-09-22T11:28:48.678Z,16.60
2018-09-22T11:31:17.003Z,16.70
2018-09-22T11:33:45.498Z,16.90
2018-09-22T11:36:13.835Z,16.90
2018-09-22T11:38:42.210Z,16.90
2018-09-22T11:41:10.685Z,16.90
2018-09-22T11:43:39.035Z,16.90
2018-09-22T11:46:07.462Z,16.90
2018-09-22T11:48:35.862Z,16.90
2018-09-22T11:51:04.251Z,16.80
2018-09-22T11:53:32.623Z,16.80
2018-09-22T11:56:01.074Z,16.80
2018-09-22T11:58:29.460Z,16.90
2018-09-22T12:00:57.812Z,16.90
2018-09-22T12:03:26.163Z,17.00
2018-09-22T12:05:54.567Z,16.90
2018-09-22T12:08:22.976Z,16.70
2018-09-22T12:10:51.367Z,16.70
2018-09-22T12:13:19.688Z,16.80
2018-09-22T12:15:48.068Z,16.90
2018-09-22T12:18:16.406Z,17.00
2018-09-22T12:20:44.756Z,16.90
2018-09-22T12:23:13.085Z,16.80
2018-09-22T12:25:41.427Z,16.80
2018-09-22T12:28:09.760Z,16.80
2018-09-22T12:30:38.115Z,16.70
2018-09-22T12:33:06.591Z,16.70
2018-09-22T12:35:35.210Z,16.70
2018-09-22T12:38:03.528Z,16.70
2018-09-22T12:40:31.879Z,16.70
2018-09-22T12:43:00.207Z,16.70
2018-09-22T12:45:28.560Z,16.70
2018-09-22T12:47:56.908Z,16.70
2018-09-22T12:50:25.246Z,16.70
2018-09-22T12:52:53.584Z,16.70
2018-09-22T12:55:21.927Z,16.70
2018-09-22T12:57:50.258Z,16.60
2018-09-22T13:00:18.612Z,16.70
2018-09-22T13:02:46.943Z,16.70
2018-09-22T13:05:15.299Z,16.70
2018-09-22T13:07:43.629Z,16.70
2018-09-22T13:10:11.978Z,16.70
2018-09-22T13:12:40.333Z,16.70
2018-09-22T13:15:08.679Z,16.70
2018-09-22T13:17:37.016Z,16.70
2018-09-22T13:20:05.443Z,16.70
2018-09-22T13:22:33.757Z,16.60
2018-09-22T13:25:02.123Z,16.60
2018-09-22T13:27:30.451Z,16.60
2018-09-22T13:29:58.876Z,16.60
2018-09-22T13:32:27.211Z,16.60
2018-09-22T13:34:55.583Z,16.70
2018-09-22T13:37:24.017Z,16.70
2018-09-22T13:39:52.372Z,16.70
2018-09-22T13:42:20.726Z,16.60
2018-09-22T13:44:49.061Z,16.60
2018-09-22T13:47:17.417Z,16.60
2018-09-22T13:49:45.783Z,16.50
2018-09-22T13:52:14.147Z,16.50
2018-09-22T13:54:42.522Z,16.40
2018-09-22T13:57:10.883Z,16.40
2018-09-22T13:59:39.224Z,16.40
2018-09-22T14:02:07.580Z,16.40
2018-09-22T14:04:36.026Z,16.30
2018-09-22T14:07:04.479Z,16.10
2018-09-22T14:09:32.864Z,16.10
2018-09-22T14:12:01.243Z,16.00
2018-09-22T14:14:29.605Z,15.90
2018-09-22T14:16:58.108Z,15.90
2018-09-22T14:19:26.510Z,15.70
2018-09-22T14:21:54.903Z,15.50
2018-09-22T14:24:23.234Z,15.00
2018-09-22T14:26:51.580Z,14.60
2018-09-22T14:29:19.921Z,14.40
2018-09-22T14:31:48.263Z,14.10
2018-09-22T14:34:16.588Z,13.80
2018-09-22T14:36:44.927Z,13.50
2018-09-22T14:39:13.398Z,13.30
2018-09-22T14:41:41.823Z,13.20
2018-09-22T14:44:10.163Z,13.10
2018-09-22T14:46:38.582Z,13.00
2018-09-22T14:49:06.903Z,13.00
2018-09-22T14:51:35.250Z,12.90
2018-09-22T14:54:03.581Z,12.90
2018-09-22T14:56:31.946Z,12.80
2018-09-22T14:59:00.267Z,12.70
2018-09-22T15:01:28.632Z,12.70
2018-09-22T15:03:57.806Z,12.70
2018-09-22T15:06:26.148Z,12.60
2018-09-22T15:08:54.462Z,12.50
2018-09-22T15:11:22.815Z,12.40
2018-09-22T15:13:51.139Z,12.30
2018-09-22T15:16:19.483Z,12.30
2018-09-22T15:18:47.890Z,12.20
2018-09-22T15:21:16.744Z,12.10
2018-09-22T15:23:45.105Z,12.10
2018-09-22T15:26:13.447Z,12.00
2018-09-22T15:28:41.883Z,12.10
2018-09-22T15:31:10.227Z,12.10
2018-09-22T15:33:38.575Z,12.10
2018-09-22T15:36:06.917Z,12.10
2018-09-22T15:38:35.266Z,12.10
2018-09-22T15:41:03.639Z,12.10
2018-09-22T15:43:32.071Z,12.10
2018-09-22T15:46:00.395Z,12.10
2018-09-22T15:48:28.920Z,12.00
2018-09-22T15:50:57.133Z,12.00
2018-09-22T15:53:25.482Z,11.90
2018-09-22T15:55:53.820Z,11.80
2018-09-22T15:58:22.174Z,11.80
2018-09-22T16:00:50.523Z,11.90
2018-09-22T16:03:18.890Z,11.90
2018-09-22T16:05:47.218Z,11.90
2018-09-22T16:08:15.559Z,11.90
2018-09-22T16:10:43.913Z,11.90
2018-09-22T16:13:12.266Z,12.00
2018-09-22T16:15:40.588Z,12.10
2018-09-22T16:18:08.924Z,12.10
2018-09-22T16:20:37.416Z,12.00
2018-09-22T16:23:06.387Z,11.90
2018-09-22T16:25:34.711Z,11.90
2018-09-22T16:28:03.053Z,11.80
2018-09-22T16:30:31.380Z,11.70
2018-09-22T16:32:59.719Z,11.70
2018-09-22T16:35:28.047Z,11.60
2018-09-22T16:37:56.407Z,11.50
2018-09-22T16:40:24.750Z,11.50
2018-09-22T16:42:53.115Z,11.50
2018-09-22T16:45:21.439Z,11.50
2018-09-22T16:47:49.792Z,11.50
2018-09-22T16:50:18.123Z,11.50
2018-09-22T16:52:46.465Z,11.50
2018-09-22T16:55:14.831Z,11.50
2018-09-22T16:57:43.167Z,11.50
2018-09-22T17:00:11.508Z,11.50
2018-09-22T17:02:39.851Z,11.50
2018-09-22T17:05:08.187Z,11.50
2018-09-22T17:07:36.564Z,11.50
2018-09-22T17:10:04.910Z,11.50
2018-09-22T17:12:33.258Z,11.50
2018-09-22T17:15:01.581Z,11.50
2018-09-22T17:17:30.036Z,11.50
2018-09-22T17:19:58.392Z,11.50
2018-09-22T17:22:27.019Z,11.50
2018-09-22T17:24:55.347Z,11.50
2018-09-22T17:27:23.738Z,11.50
2018-09-22T17:29:52.055Z,11.50
2018-09-22T17:32:20.378Z,11.50
2018-09-22T17:34:48.819Z,11.50
2018-09-22T17:37:17.158Z,11.50
2018-09-22T17:39:45.507Z,11.50
2018-09-22T17:42:13.855Z,11.50
2018-09-22T17:44:42.211Z,11.50
2018-09-22T17:47:10.544Z,11.50
2018-09-22T17:49:38.904Z,11.50
2018-09-22T17:52:07.236Z,11.50
2018-09-22T17:54:35.585Z,11.50
2018-09-22T17:57:03.907Z,11.60
2018-09-22T17:59:32.331Z,11.60
2018-09-22T18:02:01.000Z,11.60
2018-09-22T18:04:29.494Z,11.60
2018-09-22T18:06:57.890Z,11.70
2018-09-22T18:09:26.224Z,11.70
2018-09-22T18:11:54.578Z,11.70
2018-09-22T18:14:22.909Z,11.60
2018-09-22T18:16:51.343Z,11.50
2018-09-22T18:19:19.640Z,11.50
2018-09-22T18:21:47.994Z,11.50
2018-09-22T18:24:16.460Z,11.40
2018-09-22T18:26:44.771Z,11.40
2018-09-22T18:29:13.103Z,11.40
2018-09-22T18:31:41.454Z,11.40
2018-09-22T18:34:09.830Z,11.40
2018-09-22T18:36:38.240Z,11.30
2018-09-22T18:39:08.912Z,11.30
2018-09-22T18:41:38.954Z,11.30
2018-09-22T18:44:08.596Z,11.30
2018-09-22T18:46:38.751Z,11.30
2018-09-22T18:49:09.684Z,11.40
2018-09-22T18:51:40.928Z,11.30
2018-09-22T18:54:11.441Z,11.30
2018-09-22T18:56:41.503Z,11.30
2018-09-22T18:59:11.152Z,11.30
2018-09-22T19:01:41.318Z,11.30
2018-09-22T19:04:10.854Z,11.30
2018-09-22T19:06:40.582Z,11.30
2018-09-22T19:09:11.892Z,11.30
2018-09-22T19:11:43.027Z,11.30
2018-09-22T19:14:19.124Z,11.30
2018-09-22T19:16:56.933Z,11.40
2018-09-22T19:19:32.909Z,11.30
2018-09-22T19:22:11.289Z,11.40
2018-09-22T19:24:45.678Z,11.40
2018-09-22T19:27:26.953Z,11.30
2018-09-22T19:30:03.066Z,11.30
2018-09-22T19:32:43.539Z,11.30
2018-09-22T19:35:14.966Z,11.30
2018-09-22T19:37:49.383Z,11.30
2018-09-22T19:40:25.677Z,11.30
2018-09-22T19:42:59.848Z,11.30
2018-09-22T19:45:33.565Z,11.30
2018-09-22T19:48:13.809Z,11.30
2018-09-22T19:50:46.454Z,11.30
2018-09-22T19:53:15.816Z,11.30
2018-09-22T19:55:44.163Z,11.30
2018-09-22T19:58:12.488Z,11.30
2018-09-22T20:00:40.884Z,11.30
2018-09-22T20:03:09.200Z,11.30
2018-09-22T20:05:37.575Z,11.30
2018-09-22T20:08:05.895Z,11.30
2018-09-22T20:10:34.243Z,11.30
2018-09-22T20:13:02.585Z,11.30
2018-09-22T20:15:30.964Z,11.30
2018-09-22T20:17:59.316Z,11.20
2018-09-22T20:20:27.666Z,11.20
2018-09-22T20:22:55.975Z,11.20
2018-09-22T20:25:24.324Z,11.20
2018-09-22T20:27:52.646Z,11.20
2018-09-22T20:30:21.026Z,11.20
2018-09-22T20:32:49.998Z,11.20
2018-09-22T20:35:18.350Z,11.20
2018-09-22T20:37:46.666Z,11.20
2018-09-22T20:40:14.986Z,11.20
2018-09-22T20:42:43.318Z,11.20
2018-09-22T20:45:11.865Z,11.20
2018-09-22T20:47:40.237Z,11.20
2018-09-22T20:50:08.579Z,11.10
2018-09-22T20:52:37.060Z,11.10
2018-09-22T20:55:05.667Z,11.10
2018-09-22T20:57:34.016Z,11.10
2018-09-22T21:00:02.347Z,11.10
2018-09-22T21:02:30.682Z,11.10
2018-09-22T21:04:59.003Z,11.10
2018-09-22T21:07:27.341Z,11.10
2018-09-22T21:09:55.737Z,11.10
2018-09-22T21:12:24.096Z,11.10
2018-09-22T21:14:52.410Z,11.10
2018-09-22T21:17:20.763Z,11.10
2018-09-22T21:19:49.070Z,11.10
2018-09-22T21:22:17.395Z,11.10
2018-09-22T21:24:45.720Z,11.10
2018-09-22T21:27:14.077Z,11.10
2018-09-22T21:29:42.443Z,11.10
2018-09-22T21:32:10.787Z,11.00
2018-09-22T21:34:39.153Z,11.10
2018-09-22T21:37:07.516Z,11.00
2018-09-22T21:39:35.859Z,11.00
2018-09-22T21:42:04.199Z,11.00
2018-09-22T21:44:32.513Z,11.00
2018-09-22T21:47:00.924Z,11.00
2018-09-22T21:49:29.243Z,11.00
2018-09-22T21:51:57.588Z,11.00
2018-09-22T21:54:25.923Z,11.00
2018-09-22T21:56:54.368Z,11.00
2018-09-22T21:59:22.703Z,11.00
2018-09-22T22:01:51.107Z,11.00
2018-09-22T22:04:19.431Z,11.00
2018-09-22T22:06:47.767Z,11.00
2018-09-22T22:09:16.104Z,11.00
2018-09-22T22:11:44.462Z,11.00
2018-09-22T22:14:12.785Z,11.00
2018-09-22T22:16:41.199Z,11.00
2018-09-22T22:19:09.804Z,11.00
2018-09-22T22:21:39.483Z,11.00
2018-09-22T22:24:09.131Z,11.00
2018-09-22T22:26:38.756Z,11.00
2018-09-22T22:29:07.138Z,11.00
2018-09-22T22:31:35.685Z,11.00
2018-09-22T22:34:04.746Z,11.00
2018-09-22T22:36:33.132Z,11.00
2018-09-22T22:39:02.571Z,10.90
2018-09-22T22:41:32.162Z,10.90
2018-09-22T22:44:01.782Z,10.90
2018-09-22T22:46:30.175Z,10.90
2018-09-22T22:48:58.525Z,10.80
2018-09-22T22:51:26.883Z,10.80
2018-09-22T22:53:55.486Z,10.80
2018-09-22T22:56:23.853Z,10.80
2018-09-22T22:58:52.189Z,10.80
2018-09-22T23:01:20.517Z,10.90
2018-09-22T23:03:48.863Z,10.90
2018-09-22T23:06:17.176Z,10.90
2018-09-22T23:08:45.561Z,10.90
2018-09-22T23:11:13.935Z,10.90
2018-09-22T23:13:42.824Z,10.90
2018-09-22T23:16:11.147Z,10.90
2018-09-22T23:18:39.479Z,10.90
2018-09-22T23:21:07.905Z,10.90
2018-09-22T23:23:36.163Z,10.90
2018-09-22T23:26:04.483Z,10.90
2018-09-22T23:28:32.821Z,10.90
2018-09-22T23:31:01.151Z,10.90
2018-09-22T23:33:29.490Z,11.00
2018-09-22T23:35:57.804Z,11.00
2018-09-22T23:38:26.142Z,11.00
2018-09-22T23:40:54.454Z,11.00
2018-09-22T23:43:22.786Z,11.00
2018-09-22T23:45:51.306Z,11.00
2018-09-22T23:48:19.640Z,11.00
2018-09-22T23:50:47.959Z,10.90
2018-09-22T23:53:16.298Z,10.90
2018-09-22T23:55:44.634Z,11.00
2018-09-22T23:58:13.150Z,10.90
